createdAt,value
2022-12-13T00:01:31.265Z,15.55
2022-12-13T00:04:01.198Z,15.25
2022-12-13T00:06:30.769Z,14.10
2022-12-13T00:08:59.383Z,11.45
2022-12-13T00:11:27.881Z,11.82
2022-12-13T00:13:55.924Z,14.43
2022-12-13T00:16:25.296Z,14.43
2022-12-13T00:18:58.466Z,14.38
2022-12-13T00:21:30.852Z,14.00
2022-12-13T00:23:59.559Z,14.20
2022-12-13T00:26:30.324Z,10.18
2022-12-13T00:34:20.056Z,12.27
2022-12-13T00:36:48.339Z,13.50
2022-12-13T00:39:16.869Z,15.15
2022-12-13T00:41:45.192Z,13.70
2022-12-13T00:44:13.710Z,13.43
2022-12-13T00:46:41.972Z,16.27
2022-12-13T00:49:11.233Z,14.38
2022-12-13T00:51:39.095Z,15.05
2022-12-13T00:54:07.073Z,14.00
2022-12-13T00:56:35.121Z,14.27
2022-12-13T00:59:02.504Z,14.45
2022-12-13T01:01:33.145Z,9.02
2022-12-13T01:04:02.479Z,11.63
2022-12-13T01:06:45.136Z,15.65
2022-12-13T01:09:27.488Z,13.00
2022-12-13T01:12:03.965Z,15.02
2022-12-13T01:14:34.287Z,13.68
2022-12-13T01:17:04.762Z,16.75
2022-12-13T01:19:32.989Z,14.27
2022-12-13T01:22:04.271Z,16.58
2022-12-13T01:24:32.600Z,14.95
2022-12-13T01:27:00.351Z,10.75
2022-12-13T01:29:28.013Z,12.43
2022-12-13T01:31:55.627Z,14.88
2022-12-13T01:34:26.379Z,15.63
2022-12-13T01:36:58.033Z,14.18
2022-12-13T01:39:27.842Z,12.60
2022-12-13T01:42:00.002Z,12.95
2022-12-13T01:44:55.778Z,13.80
2022-12-13T01:47:30.627Z,12.90
2022-12-13T01:50:02.297Z,14.85
2022-12-13T01:52:33.746Z,13.80
2022-12-13T01:55:04.317Z,16.13
2022-12-13T01:57:33.892Z,16.60
2022-12-13T02:00:02.182Z,14.98
2022-12-13T02:02:29.726Z,13.27
2022-12-13T02:05:11.890Z,13.38
2022-12-13T02:07:41.958Z,12.20
2022-12-13T02:10:10.346Z,14.90
2022-12-13T02:12:39.808Z,12.18
2022-12-13T02:15:28.851Z,14.32
2022-12-13T02:18:08.285Z,10.80
2022-12-13T02:20:55.866Z,15.20
2022-12-13T02:23:35.383Z,11.43
2022-12-13T02:26:13.212Z,14.13
2022-12-13T02:29:08.082Z,14.75
2022-12-13T02:32:06.447Z,12.63
2022-12-13T02:34:42.554Z,16.40
2022-12-13T02:37:48.000Z,15.65
2022-12-13T02:40:30.758Z,11.13
2022-12-13T02:43:21.322Z,13.55
2022-12-13T02:48:31.220Z,15.40
2022-12-13T02:51:01.014Z,9.48
2022-12-13T02:53:29.947Z,12.38
2022-12-13T02:56:01.325Z,13.35
2022-12-13T02:58:34.611Z,15.05
2022-12-13T03:01:29.230Z,17.58
2022-12-13T03:04:20.096Z,11.02
2022-12-13T03:07:12.123Z,14.27
2022-12-13T03:09:45.197Z,11.57
2022-12-13T03:12:59.081Z,15.38
2022-12-13T03:15:54.840Z,12.90
2022-12-13T03:18:26.438Z,7.53
2022-12-13T03:20:59.131Z,13.65
2022-12-13T03:23:27.575Z,9.55
2022-12-13T03:25:58.600Z,10.10
2022-12-13T03:28:26.105Z,12.38
2022-12-13T03:30:53.529Z,14.68
2022-12-13T03:33:22.144Z,12.93
2022-12-13T03:35:49.727Z,14.27
2022-12-13T03:38:22.214Z,19.58
2022-12-13T03:40:57.382Z,17.00
2022-12-13T03:43:25.450Z,15.20
2022-12-13T03:45:53.692Z,17.08
2022-12-13T03:48:23.706Z,9.45
2022-12-13T03:50:53.164Z,16.00
2022-12-13T03:53:32.979Z,11.40
2022-12-13T03:56:06.542Z,10.45
2022-12-13T03:58:37.612Z,15.48
2022-12-13T04:01:11.184Z,17.95
2022-12-13T04:03:40.293Z,13.55
2022-12-13T04:06:08.718Z,10.00
2022-12-13T04:08:37.201Z,14.07
2022-12-13T04:11:24.938Z,17.00
2022-12-13T04:13:53.303Z,16.02
2022-12-13T04:16:21.752Z,12.75
2022-12-13T04:18:49.425Z,14.00
2022-12-13T04:21:16.814Z,12.52
2022-12-13T04:23:44.147Z,15.15
2022-12-13T04:26:11.631Z,21.75
2022-12-13T04:28:39.200Z,18.73
2022-12-13T04:31:06.747Z,18.83
2022-12-13T04:33:34.925Z,18.73
2022-12-13T04:36:02.535Z,20.98
2022-12-13T04:38:29.979Z,12.68
2022-12-13T04:41:16.321Z,19.08
2022-12-13T04:43:44.184Z,17.63
2022-12-13T04:46:11.629Z,16.13
2022-12-13T04:48:38.991Z,12.45
2022-12-13T04:51:06.475Z,14.93
2022-12-13T04:53:33.806Z,14.00
2022-12-13T04:56:03.969Z,12.45
2022-12-13T04:58:32.105Z,12.23
2022-12-13T05:00:59.695Z,15.05
2022-12-13T05:03:28.877Z,19.08
2022-12-13T05:05:57.000Z,18.60
2022-12-13T05:08:24.456Z,9.63
2022-12-13T05:10:51.883Z,12.57
2022-12-13T05:13:19.215Z,14.43
2022-12-13T05:15:49.508Z,17.42
2022-12-13T05:18:21.047Z,17.95
2022-12-13T05:20:48.467Z,19.80
2022-12-13T05:23:22.346Z,19.50
2022-12-13T05:25:51.744Z,15.00
2022-12-13T05:28:28.078Z,19.73
2022-12-13T05:31:06.180Z,16.83
2022-12-13T05:33:52.320Z,18.05
2022-12-13T05:36:19.809Z,14.70
2022-12-13T05:38:47.190Z,12.73
2022-12-13T05:41:17.610Z,15.57
2022-12-13T05:43:44.980Z,14.15
2022-12-13T05:46:15.497Z,20.98
2022-12-13T05:48:43.188Z,13.80
2022-12-13T05:51:12.071Z,15.68
2022-12-13T05:53:41.334Z,17.33
2022-12-13T05:56:10.476Z,16.83
2022-12-13T05:58:39.650Z,17.85
2022-12-13T06:01:13.027Z,13.25
2022-12-13T06:03:41.653Z,16.60
2022-12-13T06:06:11.549Z,16.50
2022-12-13T06:08:39.896Z,18.63
2022-12-13T06:11:11.592Z,19.70
2022-12-13T06:13:44.323Z,16.40
2022-12-13T06:16:21.953Z,14.88
2022-12-13T06:18:59.348Z,18.13
2022-12-13T06:21:41.663Z,15.07
2022-12-13T06:24:15.204Z,14.32
2022-12-13T06:26:42.867Z,19.40
2022-12-13T06:29:23.234Z,16.35
2022-12-13T06:32:01.142Z,15.73
2022-12-13T06:34:35.708Z,16.73
2022-12-13T06:37:07.301Z,16.83
2022-12-13T06:39:35.454Z,19.15
2022-12-13T06:42:06.602Z,20.80
2022-12-13T06:44:35.518Z,18.77
2022-12-13T06:47:10.652Z,18.48
2022-12-13T06:49:42.914Z,19.10
2022-12-13T06:54:42.805Z,16.35
2022-12-13T06:57:13.865Z,17.20
2022-12-13T06:59:41.947Z,17.17
2022-12-13T07:02:24.195Z,16.48
2022-12-13T07:04:53.462Z,20.10
2022-12-13T07:07:21.315Z,13.80
2022-12-13T07:09:48.708Z,15.35
2022-12-13T07:12:16.133Z,18.05
2022-12-13T07:14:43.905Z,19.23
2022-12-13T07:17:11.502Z,17.77
2022-12-13T07:19:39.096Z,17.58
2022-12-13T07:22:06.610Z,17.13
2022-12-13T07:24:36.981Z,16.98
2022-12-13T07:27:05.100Z,18.38
2022-12-13T07:29:32.656Z,18.02
2022-12-13T07:32:01.431Z,18.00
2022-12-13T07:34:31.334Z,21.73
2022-12-13T07:36:58.869Z,19.83
2022-12-13T07:39:26.661Z,17.30
2022-12-13T07:41:57.249Z,20.88
2022-12-13T07:44:25.279Z,22.58
2022-12-13T07:46:52.974Z,19.92
2022-12-13T07:49:20.885Z,19.67
2022-12-13T07:51:49.200Z,21.23
2022-12-13T07:54:16.725Z,19.20
2022-12-13T07:56:44.592Z,19.00
2022-12-13T07:59:13.520Z,20.67
2022-12-13T08:01:41.142Z,18.70
2022-12-13T08:04:08.815Z,16.83
2022-12-13T08:06:38.256Z,12.90
2022-12-13T08:09:06.291Z,14.30
2022-12-13T08:11:34.107Z,19.38
2022-12-13T08:14:01.615Z,19.45
2022-12-13T08:16:29.849Z,15.73
2022-12-13T08:19:02.366Z,15.52
2022-12-13T08:21:56.766Z,17.88
2022-12-13T08:24:29.635Z,17.58
2022-12-13T08:27:02.282Z,18.42
2022-12-13T08:29:34.119Z,16.33
2022-12-13T08:32:08.711Z,16.92
2022-12-13T08:34:36.556Z,16.27
2022-12-13T08:37:04.920Z,12.20
2022-12-13T08:39:35.777Z,16.05
2022-12-13T08:42:15.885Z,12.75
2022-12-13T08:44:50.954Z,14.73
2022-12-13T08:47:23.073Z,15.27
2022-12-13T08:49:51.369Z,14.98
2022-12-13T08:52:19.901Z,16.63
2022-12-13T08:54:47.419Z,16.13
2022-12-13T08:57:15.011Z,12.98
2022-12-13T08:59:42.486Z,13.30
2022-12-13T09:02:16.825Z,12.82
2022-12-13T09:04:45.253Z,16.75
2022-12-13T09:07:13.299Z,23.63
2022-12-13T09:09:40.890Z,14.15
2022-12-13T09:12:10.255Z,12.90
2022-12-13T09:14:38.243Z,14.55
2022-12-13T09:17:23.998Z,16.50
2022-12-13T09:19:58.011Z,16.23
2022-12-13T09:22:33.039Z,13.85
2022-12-13T09:25:05.562Z,16.67
2022-12-13T09:27:39.991Z,13.38
2022-12-13T09:30:12.137Z,14.18
2022-12-13T09:32:49.718Z,12.82
2022-12-13T09:35:17.941Z,13.00
2022-12-13T09:37:46.386Z,17.73
2022-12-13T09:40:25.703Z,13.98
2022-12-13T09:43:12.776Z,13.93
2022-12-13T09:45:45.596Z,9.48
2022-12-13T09:48:22.578Z,11.27
2022-12-13T09:50:58.346Z,15.15
2022-12-13T09:53:40.772Z,10.52
2022-12-13T09:56:12.094Z,12.15
2022-12-13T09:58:39.554Z,21.92
2022-12-13T10:01:06.988Z,30.52
2022-12-13T10:03:34.859Z,10.95
2022-12-13T10:06:24.203Z,10.18
2022-12-13T10:09:00.362Z,9.35
2022-12-13T10:11:31.959Z,9.30
2022-12-13T10:14:27.471Z,12.52
2022-12-13T10:16:58.426Z,9.05
2022-12-13T10:22:09.633Z,8.65
2022-12-13T10:24:56.219Z,9.85
2022-12-13T10:27:40.544Z,6.43
2022-12-13T10:30:12.709Z,8.20
2022-12-13T10:33:01.139Z,7.10
2022-12-13T10:35:34.723Z,5.90
2022-12-13T10:38:19.620Z,9.65
2022-12-13T10:40:49.260Z,5.00
2022-12-13T10:43:26.625Z,5.35
2022-12-13T10:46:01.497Z,6.43
2022-12-13T10:48:50.800Z,8.18
2022-12-13T10:51:21.762Z,6.35
2022-12-13T10:56:36.105Z,6.57
2022-12-13T10:59:26.328Z,9.52
2022-12-13T11:01:55.402Z,10.52
2022-12-13T11:04:30.151Z,13.32
2022-12-13T11:07:18.722Z,11.80
2022-12-13T11:09:52.645Z,12.30
2022-12-13T11:12:25.062Z,6.10
2022-12-13T11:15:00.387Z,8.15
2022-12-13T11:17:32.882Z,7.03
2022-12-13T11:20:07.112Z,11.13
2022-12-13T11:22:39.065Z,8.73
2022-12-13T11:25:17.941Z,8.18
2022-12-13T11:28:03.728Z,11.55
2022-12-13T11:31:01.647Z,6.32
2022-12-13T11:34:03.029Z,6.13
2022-12-13T11:36:45.503Z,6.55
2022-12-13T11:39:19.004Z,6.55
2022-12-13T11:41:49.396Z,9.77
2022-12-13T11:44:27.334Z,8.93
2022-12-13T11:46:58.488Z,4.65
2022-12-13T11:49:42.207Z,12.57
2022-12-13T11:52:30.192Z,12.45
2022-12-13T11:55:04.549Z,13.70
2022-12-13T11:57:37.779Z,9.02
2022-12-13T12:00:33.671Z,7.50
2022-12-13T12:03:14.443Z,9.63
2022-12-13T12:06:02.102Z,4.88
2022-12-13T12:08:50.663Z,9.90
2022-12-13T12:11:28.291Z,8.73
2022-12-13T12:14:11.143Z,9.75
2022-12-13T12:16:49.292Z,8.23
2022-12-13T12:19:23.412Z,5.60
2022-12-13T12:22:14.846Z,7.03
2022-12-13T12:25:10.767Z,5.60
2022-12-13T12:28:15.694Z,6.20
2022-12-13T12:30:51.979Z,8.35
2022-12-13T12:33:47.522Z,4.93
2022-12-13T12:36:32.728Z,4.70
2022-12-13T12:39:20.881Z,5.45
2022-12-13T12:42:03.257Z,4.97
2022-12-13T12:44:50.963Z,7.15
2022-12-13T12:48:46.339Z,5.07
2022-12-13T12:50:54.110Z,4.93
2022-12-13T12:53:53.946Z,7.88
2022-12-13T12:56:39.669Z,5.93
2022-12-13T12:59:31.234Z,7.78
2022-12-13T13:02:21.791Z,8.77
2022-12-13T13:04:56.031Z,10.65
2022-12-13T13:07:29.656Z,9.30
2022-12-13T13:09:57.862Z,8.13
2022-12-13T13:12:44.788Z,9.65
2022-12-13T13:15:33.496Z,5.68
2022-12-13T13:18:01.336Z,6.72
2022-12-13T13:20:29.638Z,10.25
2022-12-13T13:23:38.728Z,6.90
2022-12-13T13:26:16.272Z,10.75
2022-12-13T13:28:45.753Z,15.70
2022-12-13T13:31:13.270Z,9.65
2022-12-13T13:33:47.675Z,7.25
2022-12-13T13:36:46.857Z,6.40
2022-12-13T13:39:19.886Z,6.70
2022-12-13T13:41:55.214Z,9.55
2022-12-13T13:44:57.115Z,9.68
2022-12-13T13:47:24.543Z,14.00
2022-12-13T13:50:13.004Z,14.98
2022-12-13T13:53:20.199Z,10.00
2022-12-13T13:56:05.839Z,5.78
2022-12-13T13:58:59.621Z,7.30
2022-12-13T14:01:51.246Z,15.60
2022-12-13T14:04:37.893Z,12.43
2022-12-13T14:07:44.658Z,7.03
2022-12-13T14:10:45.904Z,9.13
2022-12-13T14:13:50.185Z,8.32
2022-12-13T14:16:20.829Z,13.60
2022-12-13T14:19:07.225Z,23.10
2022-12-13T14:21:54.776Z,14.98
2022-12-13T14:24:25.018Z,11.85
2022-12-13T14:26:55.273Z,17.67
2022-12-13T14:29:34.960Z,21.13
2022-12-13T14:32:02.536Z,14.68
2022-12-13T14:34:31.543Z,19.65
2022-12-13T14:37:04.452Z,17.02
2022-12-13T14:39:34.906Z,12.18
2022-12-13T14:42:20.878Z,21.25
2022-12-13T14:44:48.313Z,14.60
2022-12-13T14:47:15.834Z,13.55
2022-12-13T14:49:49.147Z,14.32
2022-12-13T14:52:27.199Z,10.93
2022-12-13T14:54:58.399Z,13.85
2022-12-13T14:57:29.215Z,15.90
2022-12-13T14:59:58.969Z,15.05
2022-12-13T15:02:33.377Z,8.55
2022-12-13T15:05:04.000Z,14.18
2022-12-13T15:07:40.434Z,11.25
2022-12-13T15:10:48.125Z,12.73
2022-12-13T15:13:41.124Z,17.45
2022-12-13T15:16:14.866Z,26.88
2022-12-13T15:18:42.491Z,39.00
2022-12-13T15:21:22.446Z,33.45
2022-12-13T15:23:50.551Z,20.88
2022-12-13T15:26:28.776Z,11.55
2022-12-13T15:29:00.813Z,14.63
2022-12-13T15:31:29.101Z,14.15
2022-12-13T15:34:30.181Z,10.63
2022-12-13T15:37:28.054Z,31.88
2022-12-13T15:40:01.061Z,22.20
2022-12-13T15:42:39.528Z,28.77
2022-12-13T15:45:30.433Z,17.77
2022-12-13T15:48:02.257Z,19.33
2022-12-13T15:50:35.876Z,13.40
2022-12-13T15:53:27.306Z,29.75
2022-12-13T15:55:54.956Z,21.25
2022-12-13T15:58:33.426Z,47.58
2022-12-13T16:01:05.551Z,43.67
2022-12-13T16:03:45.420Z,48.38
2022-12-13T16:06:19.401Z,28.48
2022-12-13T16:08:51.530Z,34.65
2022-12-13T16:11:58.680Z,43.72
2022-12-13T16:14:48.821Z,36.72
2022-12-13T16:17:25.315Z,21.08
2022-12-13T16:19:54.652Z,10.20
2022-12-13T16:22:24.213Z,12.60
2022-12-13T16:24:52.859Z,10.52
2022-12-13T16:27:20.358Z,17.50
2022-12-13T16:29:48.031Z,11.27
2022-12-13T16:32:15.514Z,9.38
2022-12-13T16:34:43.042Z,11.50
2022-12-13T16:37:26.735Z,18.52
2022-12-13T16:39:54.771Z,21.17
2022-12-13T16:42:26.428Z,25.38
2022-12-13T16:45:40.473Z,24.63
2022-12-13T16:47:49.071Z,19.27
2022-12-13T16:50:19.779Z,16.25
2022-12-13T16:52:48.535Z,22.10
2022-12-13T16:55:16.186Z,19.38
2022-12-13T16:57:43.633Z,15.40
2022-12-13T17:00:12.873Z,16.17
2022-12-13T17:02:41.148Z,12.15
2022-12-13T17:05:08.979Z,14.90
2022-12-13T17:07:36.342Z,11.73
2022-12-13T17:10:05.188Z,10.75
2022-12-13T17:12:32.799Z,10.73
2022-12-13T17:15:00.271Z,9.65
2022-12-13T17:17:28.241Z,11.65
2022-12-13T17:19:55.800Z,9.25
2022-12-13T17:22:23.385Z,9.90
2022-12-13T17:24:50.903Z,11.15
2022-12-13T17:27:18.726Z,10.60
2022-12-13T17:29:47.905Z,16.02
2022-12-13T17:32:15.294Z,13.93
2022-12-13T17:34:43.275Z,15.70
2022-12-13T17:37:10.987Z,15.45
2022-12-13T17:39:38.556Z,14.55
2022-12-13T17:42:06.302Z,16.92
2022-12-13T17:44:33.983Z,20.55
2022-12-13T17:47:01.749Z,15.43
2022-12-13T17:49:29.644Z,16.90
2022-12-13T17:51:57.389Z,14.20
2022-12-13T17:54:26.043Z,15.25
2022-12-13T17:56:54.571Z,22.05
2022-12-13T17:59:22.755Z,16.30
2022-12-13T18:01:51.056Z,22.23
2022-12-13T18:04:18.739Z,15.98
2022-12-13T18:06:46.419Z,23.60
2022-12-13T18:09:14.176Z,20.17
2022-12-13T18:11:41.663Z,20.65
2022-12-13T18:14:10.758Z,12.60
2022-12-13T18:16:39.089Z,17.65
2022-12-13T18:19:10.332Z,27.58
2022-12-13T18:21:37.956Z,14.65
2022-12-13T18:24:07.026Z,14.02
2022-12-13T18:26:34.831Z,16.38
2022-12-13T18:29:03.512Z,16.90
2022-12-13T18:31:31.028Z,16.23
2022-12-13T18:33:58.660Z,12.75
2022-12-13T18:36:26.846Z,15.50
2022-12-13T18:38:54.313Z,13.30
2022-12-13T18:41:24.044Z,23.95
2022-12-13T18:44:11.615Z,29.65
2022-12-13T18:46:41.303Z,27.13
2022-12-13T18:49:12.289Z,24.45
2022-12-13T18:51:39.729Z,18.05
2022-12-13T18:54:07.284Z,15.50
2022-12-13T18:56:34.633Z,16.10
2022-12-13T18:59:02.459Z,19.27
2022-12-13T19:01:30.700Z,28.17
2022-12-13T19:03:58.522Z,17.98
2022-12-13T19:06:27.623Z,15.90
2022-12-13T19:08:57.539Z,17.80
2022-12-13T19:11:27.054Z,12.33
2022-12-13T19:13:54.658Z,10.75
2022-12-13T19:16:23.638Z,15.40
2022-12-13T19:18:51.213Z,16.38
2022-12-13T19:21:20.694Z,11.02
2022-12-13T19:23:53.483Z,11.50
2022-12-13T19:26:25.320Z,12.75
2022-12-13T19:28:52.858Z,11.70
2022-12-13T19:31:22.146Z,11.40
2022-12-13T19:33:52.979Z,11.20
2022-12-13T19:36:20.419Z,10.40
2022-12-13T19:38:47.754Z,9.23
2022-12-13T19:41:18.188Z,10.07
2022-12-13T19:43:52.357Z,8.88
2022-12-13T19:46:20.938Z,6.72
2022-12-13T19:48:48.655Z,11.68
2022-12-13T19:51:16.491Z,20.63
2022-12-13T19:53:44.139Z,25.30
2022-12-13T19:56:15.298Z,13.48
2022-12-13T19:58:42.695Z,17.55
2022-12-13T20:01:10.539Z,24.30
2022-12-13T20:03:41.384Z,12.98
2022-12-13T20:08:37.269Z,6.75
2022-12-13T20:11:08.056Z,10.07
2022-12-13T20:16:04.958Z,8.27
2022-12-13T20:18:33.449Z,13.35
2022-12-13T20:21:13.670Z,16.15
2022-12-13T20:23:49.471Z,14.30
2022-12-13T20:26:21.173Z,11.07
2022-12-13T20:28:49.821Z,18.08
2022-12-13T20:31:20.492Z,12.55
2022-12-13T20:33:48.556Z,11.82
2022-12-13T20:36:27.351Z,12.32
2022-12-13T20:38:57.159Z,12.20
2022-12-13T20:41:27.164Z,12.38
2022-12-13T20:43:56.480Z,12.67
2022-12-13T20:46:25.082Z,12.65
2022-12-13T20:48:53.286Z,14.15
2022-12-13T20:51:22.603Z,13.52
2022-12-13T20:53:51.392Z,11.43
2022-12-13T20:56:22.039Z,8.48
2022-12-13T20:58:50.642Z,9.90
2022-12-13T21:01:25.978Z,16.27
2022-12-13T21:03:55.250Z,11.27
2022-12-13T21:06:23.375Z,11.32
2022-12-13T21:08:53.359Z,11.88
2022-12-13T21:11:25.030Z,10.63
2022-12-13T21:14:05.441Z,10.85
2022-12-13T21:16:41.571Z,10.30
2022-12-13T21:19:11.741Z,13.82
2022-12-13T21:21:39.156Z,11.68
2022-12-13T21:24:07.288Z,10.63
2022-12-13T21:26:35.919Z,13.30
2022-12-13T21:29:06.890Z,9.73
2022-12-13T21:31:35.831Z,8.70
2022-12-13T21:34:04.336Z,10.30
2022-12-13T21:36:37.647Z,7.95
2022-12-13T21:39:08.575Z,10.00
2022-12-13T21:41:36.045Z,11.65
2022-12-13T21:44:03.609Z,10.13
2022-12-13T21:47:02.882Z,11.05
2022-12-13T21:49:19.013Z,10.25
2022-12-13T21:51:48.421Z,11.60
2022-12-13T21:54:17.059Z,10.10
2022-12-13T21:57:03.143Z,7.65
2022-12-13T21:59:30.985Z,7.32
2022-12-13T22:02:16.315Z,10.85
2022-12-13T22:04:55.327Z,10.75
2022-12-13T22:07:31.081Z,10.02
2022-12-13T22:09:59.880Z,14.43
2022-12-13T22:12:33.082Z,11.73
2022-12-13T22:15:01.130Z,10.90
2022-12-13T22:17:35.287Z,11.63
2022-12-13T22:20:05.773Z,10.10
2022-12-13T22:22:33.369Z,10.23
2022-12-13T22:25:00.816Z,8.93
2022-12-13T22:27:28.235Z,10.25
2022-12-13T22:29:57.703Z,12.63
2022-12-13T22:32:27.199Z,13.70
2022-12-13T22:34:55.120Z,9.52
2022-12-13T22:37:22.584Z,9.02
2022-12-13T22:39:50.677Z,9.73
2022-12-13T22:42:18.041Z,8.93
2022-12-13T22:44:45.552Z,11.73
2022-12-13T22:47:12.886Z,11.55
2022-12-13T22:49:40.343Z,15.00
2022-12-13T22:52:07.972Z,10.18
2022-12-13T22:54:36.040Z,13.02
2022-12-13T22:57:03.723Z,10.93
2022-12-13T22:59:31.486Z,12.25
2022-12-13T23:02:02.740Z,15.00
2022-12-13T23:04:32.005Z,13.35
2022-12-13T23:06:59.600Z,11.00
2022-12-13T23:09:27.291Z,10.40
2022-12-13T23:12:13.772Z,11.23
2022-12-13T23:14:41.293Z,9.88
2022-12-13T23:17:08.751Z,10.38
2022-12-13T23:19:48.998Z,10.57
2022-12-13T23:22:23.664Z,7.60
2022-12-13T23:24:52.352Z,10.85
2022-12-13T23:27:21.798Z,12.35
2022-12-13T23:29:49.639Z,11.90
2022-12-13T23:32:17.573Z,9.30
2022-12-13T23:34:44.939Z,8.07
2022-12-13T23:37:12.340Z,10.85
2022-12-13T23:39:39.708Z,12.20
2022-12-13T23:42:07.357Z,14.20
2022-12-13T23:44:34.849Z,14.48
2022-12-13T23:47:02.273Z,13.50
2022-12-13T23:49:29.748Z,13.82
2022-12-13T23:51:57.129Z,10.63
2022-12-13T23:54:24.512Z,12.18
2022-12-13T23:56:51.978Z,9.88
2022-12-13T23:59:20.369Z,12.65
